sensor_id;sensor_type;location;lat;lon;timestamp;pressure;altitude;pressure_sealevel;temperature;humidity
58757;BME280;44527;47.460;19.016;2024-02-15T00:00:42;101015.16;;;6.37;93.32
58757;BME280;44527;47.460;19.016;2024-02-15T00:03:45;101020.53;;;6.32;93.62
58757;BME280;44527;47.460;19.016;2024-02-15T00:06:48;101029.69;;;6.42;93.01
58757;BME280;44527;47.460;19.016;2024-02-15T00:09:50;101030.75;;;6.60;92.00
58757;BME280;44527;47.460;19.016;2024-02-15T00:12:53;101031.00;;;6.54;91.79
58757;BME280;44527;47.460;19.016;2024-02-15T00:15:55;101030.03;;;6.57;92.14
58757;BME280;44527;47.460;19.016;2024-02-15T00:18:58;101033.56;;;6.56;91.28
58757;BME280;44527;47.460;19.016;2024-02-15T00:22:02;101028.88;;;6.18;93.65
58757;BME280;44527;47.460;19.016;2024-02-15T00:25:04;101020.94;;;6.21;94.05
58757;BME280;44527;47.460;19.016;2024-02-15T00:28:08;101027.37;;;6.35;93.09
58757;BME280;44527;47.460;19.016;2024-02-15T00:31:10;101016.78;;;6.39;92.29
58757;BME280;44527;47.460;19.016;2024-02-15T00:34:13;101019.25;;;6.42;91.55
58757;BME280;44527;47.460;19.016;2024-02-15T00:37:16;101026.06;;;6.25;91.56
58757;BME280;44527;47.460;19.016;2024-02-15T00:40:19;101027.28;;;6.14;91.90
58757;BME280;44527;47.460;19.016;2024-02-15T00:43:21;101014.59;;;6.29;91.97
58757;BME280;44527;47.460;19.016;2024-02-15T00:46:24;101022.22;;;6.57;90.22
58757;BME280;44527;47.460;19.016;2024-02-15T00:49:30;101025.38;;;6.65;89.90
58757;BME280;44527;47.460;19.016;2024-02-15T00:52:34;101032.00;;;6.74;89.53
58757;BME280;44527;47.460;19.016;2024-02-15T00:55:36;101033.31;;;6.84;90.07
58757;BME280;44527;47.460;19.016;2024-02-15T00:58:39;101034.28;;;6.81;90.55
58757;BME280;44527;47.460;19.016;2024-02-15T01:01:41;101037.75;;;6.82;89.61
58757;BME280;44527;47.460;19.016;2024-02-15T01:04:44;101030.47;;;6.46;90.71
58757;BME280;44527;47.460;19.016;2024-02-15T01:07:48;101033.59;;;6.54;90.88
58757;BME280;44527;47.460;19.016;2024-02-15T01:10:53;101031.19;;;6.72;88.65
58757;BME280;44527;47.460;19.016;2024-02-15T01:13:56;101035.09;;;6.83;88.08
58757;BME280;44527;47.460;19.016;2024-02-15T01:16:59;101025.97;;;6.72;89.34
58757;BME280;44527;47.460;19.016;2024-02-15T01:20:01;101031.56;;;6.62;89.63
58757;BME280;44527;47.460;19.016;2024-02-15T01:23:03;101034.97;;;6.86;88.68
58757;BME280;44527;47.460;19.016;2024-02-15T01:26:09;101035.25;;;7.01;87.39
58757;BME280;44527;47.460;19.016;2024-02-15T01:29:14;101040.28;;;7.27;86.25
58757;BME280;44527;47.460;19.016;2024-02-15T01:32:16;101034.84;;;7.11;88.31
58757;BME280;44527;47.460;19.016;2024-02-15T01:35:22;101030.22;;;6.96;89.28
58757;BME280;44527;47.460;19.016;2024-02-15T01:38:24;101028.16;;;6.82;91.13
58757;BME280;44527;47.460;19.016;2024-02-15T01:41:27;101036.75;;;6.86;90.57
58757;BME280;44527;47.460;19.016;2024-02-15T01:44:29;101033.13;;;6.88;90.26
58757;BME280;44527;47.460;19.016;2024-02-15T01:47:32;101023.44;;;6.92;90.10
58757;BME280;44527;47.460;19.016;2024-02-15T01:50:34;101026.81;;;6.94;90.94
58757;BME280;44527;47.460;19.016;2024-02-15T01:53:38;101030.09;;;6.99;91.50
58757;BME280;44527;47.460;19.016;2024-02-15T01:56:43;101029.53;;;7.13;90.02
58757;BME280;44527;47.460;19.016;2024-02-15T01:59:46;101026.19;;;7.09;90.25
58757;BME280;44527;47.460;19.016;2024-02-15T02:02:50;101021.94;;;7.07;91.66
58757;BME280;44527;47.460;19.016;2024-02-15T02:05:54;101020.56;;;7.20;89.59
58757;BME280;44527;47.460;19.016;2024-02-15T02:08:56;101018.38;;;7.09;88.64
58757;BME280;44527;47.460;19.016;2024-02-15T02:12:00;101008.31;;;7.00;89.87
58757;BME280;44527;47.460;19.016;2024-02-15T02:15:02;101009.34;;;6.96;90.48
58757;BME280;44527;47.460;19.016;2024-02-15T02:18:05;101012.38;;;6.85;89.89
58757;BME280;44527;47.460;19.016;2024-02-15T02:21:12;101004.62;;;6.84;90.42
58757;BME280;44527;47.460;19.016;2024-02-15T02:24:21;101011.41;;;6.88;90.40
58757;BME280;44527;47.460;19.016;2024-02-15T02:27:26;101002.03;;;6.62;92.34
58757;BME280;44527;47.460;19.016;2024-02-15T02:30:32;101002.38;;;6.53;93.90
58757;BME280;44527;47.460;19.016;2024-02-15T02:33:34;100998.94;;;6.52;94.83
58757;BME280;44527;47.460;19.016;2024-02-15T02:36:37;101002.03;;;6.62;93.51
58757;BME280;44527;47.460;19.016;2024-02-15T02:39:39;101001.12;;;6.39;95.10
58757;BME280;44527;47.460;19.016;2024-02-15T02:42:53;100998.25;;;6.24;96.57
58757;BME280;44527;47.460;19.016;2024-02-15T02:45:58;100996.50;;;6.24;97.49
58757;BME280;44527;47.460;19.016;2024-02-15T02:49:00;100993.03;;;6.24;97.63
58757;BME280;44527;47.460;19.016;2024-02-15T02:52:04;100992.50;;;6.15;98.28
58757;BME280;44527;47.460;19.016;2024-02-15T02:55:06;100986.63;;;6.09;98.33
58757;BME280;44527;47.460;19.016;2024-02-15T02:58:10;100986.75;;;6.06;97.86
58757;BME280;44527;47.460;19.016;2024-02-15T03:01:13;100991.97;;;5.81;99.77
58757;BME280;44527;47.460;19.016;2024-02-15T03:04:15;100999.28;;;5.96;99.83
58757;BME280;44527;47.460;19.016;2024-02-15T03:07:21;101002.47;;;6.04;99.44
58757;BME280;44527;47.460;19.016;2024-02-15T03:10:25;101003.37;;;6.03;100.00
58757;BME280;44527;47.460;19.016;2024-02-15T03:13:29;101004.34;;;6.01;100.00
58757;BME280;44527;47.460;19.016;2024-02-15T03:16:31;101008.53;;;6.05;100.00
58757;BME280;44527;47.460;19.016;2024-02-15T03:19:34;101004.97;;;6.07;99.74
58757;BME280;44527;47.460;19.016;2024-02-15T03:22:36;101004.13;;;6.07;100.00
58757;BME280;44527;47.460;19.016;2024-02-15T03:25:40;101002.75;;;6.20;98.66
58757;BME280;44527;47.460;19.016;2024-02-15T03:28:42;101001.62;;;6.04;98.50
58757;BME280;44527;47.460;19.016;2024-02-15T03:31:46;100998.84;;;5.83;99.91
58757;BME280;44527;47.460;19.016;2024-02-15T03:34:49;100997.16;;;5.82;100.00
58757;BME280;44527;47.460;19.016;2024-02-15T03:37:52;100995.72;;;5.73;100.00
58757;BME280;44527;47.460;19.016;2024-02-15T03:40:56;101006.84;;;5.79;100.00
58757;BME280;44527;47.460;19.016;2024-02-15T03:43:58;101004.97;;;5.82;100.00
58757;BME280;44527;47.460;19.016;2024-02-15T03:47:02;101004.16;;;6.05;100.00
58757;BME280;44527;47.460;19.016;2024-02-15T03:50:05;101011.62;;;6.14;99.64
58757;BME280;44527;47.460;19.016;2024-02-15T03:53:09;101009.84;;;6.16;100.00
58757;BME280;44527;47.460;19.016;2024-02-15T03:56:13;101008.47;;;6.06;99.41
58757;BME280;44527;47.460;19.016;2024-02-15T03:59:15;101004.56;;;5.94;99.67
58757;BME280;44527;47.460;19.016;2024-02-15T04:02:19;101017.25;;;6.04;99.22
58757;BME280;44527;47.460;19.016;2024-02-15T04:05:21;101002.69;;;5.98;99.26
58757;BME280;44527;47.460;19.016;2024-02-15T04:08:25;101011.31;;;6.00;99.60
58757;BME280;44527;47.460;19.016;2024-02-15T04:11:27;101004.03;;;6.32;97.25
58757;BME280;44527;47.460;19.016;2024-02-15T04:14:32;101005.72;;;6.33;96.93
58757;BME280;44527;47.460;19.016;2024-02-15T04:17:35;101004.44;;;6.21;97.20
58757;BME280;44527;47.460;19.016;2024-02-15T04:20:38;101001.72;;;6.24;97.62
58757;BME280;44527;47.460;19.016;2024-02-15T04:23:41;100998.00;;;6.31;97.65
58757;BME280;44527;47.460;19.016;2024-02-15T04:26:43;100996.91;;;6.37;96.94
58757;BME280;44527;47.460;19.016;2024-02-15T04:29:46;100999.56;;;6.35;97.48
58757;BME280;44527;47.460;19.016;2024-02-15T04:32:48;101001.09;;;6.41;97.66
58757;BME280;44527;47.460;19.016;2024-02-15T04:35:51;100999.28;;;6.43;97.77
58757;BME280;44527;47.460;19.016;2024-02-15T04:38:53;100996.72;;;6.41;98.17
58757;BME280;44527;47.460;19.016;2024-02-15T04:41:56;101001.56;;;6.51;97.30
58757;BME280;44527;47.460;19.016;2024-02-15T04:44:58;100995.75;;;6.44;96.88
58757;BME280;44527;47.460;19.016;2024-02-15T04:48:01;101002.97;;;6.59;96.89
58757;BME280;44527;47.460;19.016;2024-02-15T04:51:06;101002.87;;;6.62;96.15
58757;BME280;44527;47.460;19.016;2024-02-15T04:54:10;101008.12;;;6.61;95.58
58757;BME280;44527;47.460;19.016;2024-02-15T04:57:15;100998.84;;;6.54;97.17
58757;BME280;44527;47.460;19.016;2024-02-15T05:00:19;101004.31;;;6.48;96.56
58757;BME280;44527;47.460;19.016;2024-02-15T05:03:23;100995.28;;;6.56;96.69
58757;BME280;44527;47.460;19.016;2024-02-15T05:06:26;101007.59;;;6.53;97.63
58757;BME280;44527;47.460;19.016;2024-02-15T05:09:32;101012.84;;;6.51;98.01
58757;BME280;44527;47.460;19.016;2024-02-15T05:12:35;101021.13;;;6.62;97.60
58757;BME280;44527;47.460;19.016;2024-02-15T05:15:37;101017.47;;;6.66;97.15
58757;BME280;44527;47.460;19.016;2024-02-15T05:18:40;101025.12;;;6.71;96.20
58757;BME280;44527;47.460;19.016;2024-02-15T05:21:44;101012.97;;;6.70;96.53
58757;BME280;44527;47.460;19.016;2024-02-15T05:24:48;101026.38;;;6.61;98.10
58757;BME280;44527;47.460;19.016;2024-02-15T05:27:50;101026.34;;;6.62;97.33
58757;BME280;44527;47.460;19.016;2024-02-15T05:31:17;101029.06;;;6.59;97.53
58757;BME280;44527;47.460;19.016;2024-02-15T05:34:19;101027.63;;;6.74;97.31
58757;BME280;44527;47.460;19.016;2024-02-15T05:37:22;101030.13;;;6.77;96.44
58757;BME280;44527;47.460;19.016;2024-02-15T05:40:25;101039.81;;;6.74;95.95
58757;BME280;44527;47.460;19.016;2024-02-15T05:43:28;101031.94;;;6.75;96.30
58757;BME280;44527;47.460;19.016;2024-02-15T05:46:30;101038.94;;;6.73;97.51
58757;BME280;44527;47.460;19.016;2024-02-15T05:49:33;101034.59;;;6.74;96.52
58757;BME280;44527;47.460;19.016;2024-02-15T05:52:36;101030.66;;;7.07;94.20
58757;BME280;44527;47.460;19.016;2024-02-15T05:55:41;101042.56;;;6.93;94.63
58757;BME280;44527;47.460;19.016;2024-02-15T05:58:46;101039.81;;;6.96;96.14
58757;BME280;44527;47.460;19.016;2024-02-15T06:01:49;101045.16;;;6.93;94.81
58757;BME280;44527;47.460;19.016;2024-02-15T06:04:52;101046.00;;;6.93;96.33
58757;BME280;44527;47.460;19.016;2024-02-15T06:07:55;101038.50;;;7.07;95.69
58757;BME280;44527;47.460;19.016;2024-02-15T06:11:00;101051.59;;;7.06;96.47
58757;BME280;44527;47.460;19.016;2024-02-15T06:14:06;101061.66;;;7.15;95.76
58757;BME280;44527;47.460;19.016;2024-02-15T06:17:09;101057.06;;;7.42;92.30
58757;BME280;44527;47.460;19.016;2024-02-15T06:20:13;101060.81;;;7.14;94.81
58757;BME280;44527;47.460;19.016;2024-02-15T06:23:17;101063.16;;;7.43;92.92
58757;BME280;44527;47.460;19.016;2024-02-15T06:26:20;101063.06;;;7.24;94.78
58757;BME280;44527;47.460;19.016;2024-02-15T06:29:23;101067.94;;;7.31;94.99
58757;BME280;44527;47.460;19.016;2024-02-15T06:32:45;101074.03;;;7.32;95.61
58757;BME280;44527;47.460;19.016;2024-02-15T06:36:09;101062.59;;;7.34;96.43
58757;BME280;44527;47.460;19.016;2024-02-15T06:39:42;101067.56;;;7.41;97.02
58757;BME280;44527;47.460;19.016;2024-02-15T06:42:57;101068.06;;;7.50;96.28
58757;BME280;44527;47.460;19.016;2024-02-15T06:46:01;101079.75;;;7.42;97.67
58757;BME280;44527;47.460;19.016;2024-02-15T06:49:05;101078.75;;;7.44;95.82
58757;BME280;44527;47.460;19.016;2024-02-15T06:52:08;101083.78;;;7.49;96.30
58757;BME280;44527;47.460;19.016;2024-02-15T06:55:12;101083.78;;;7.49;95.49
58757;BME280;44527;47.460;19.016;2024-02-15T06:58:17;101087.69;;;7.59;94.83
58757;BME280;44527;47.460;19.016;2024-02-15T07:01:24;101090.31;;;7.59;94.12
58757;BME280;44527;47.460;19.016;2024-02-15T07:11:53;101088.56;;;7.59;93.80
58757;BME280;44527;47.460;19.016;2024-02-15T07:14:56;101093.34;;;7.70;94.27
58757;BME280;44527;47.460;19.016;2024-02-15T07:17:58;101098.75;;;7.86;92.21
58757;BME280;44527;47.460;19.016;2024-02-15T07:21:04;101102.69;;;7.96;91.09
58757;BME280;44527;47.460;19.016;2024-02-15T07:24:13;101108.31;;;7.87;91.14
58757;BME280;44527;47.460;19.016;2024-02-15T07:27:16;101111.97;;;7.83;91.51
58757;BME280;44527;47.460;19.016;2024-02-15T07:30:20;101114.06;;;7.95;90.21
58757;BME280;44527;47.460;19.016;2024-02-15T07:33:27;101104.97;;;8.04;89.45
58757;BME280;44527;47.460;19.016;2024-02-15T07:36:33;101111.91;;;8.05;88.46
58757;BME280;44527;47.460;19.016;2024-02-15T07:39:36;101113.16;;;7.96;89.42
58757;BME280;44527;47.460;19.016;2024-02-15T07:42:39;101107.03;;;8.16;87.71
58757;BME280;44527;47.460;19.016;2024-02-15T07:45:43;101109.47;;;8.00;88.86
58757;BME280;44527;47.460;19.016;2024-02-15T07:48:50;101107.53;;;8.05;88.73
58757;BME280;44527;47.460;19.016;2024-02-15T07:51:54;101110.00;;;8.09;88.18
58757;BME280;44527;47.460;19.016;2024-02-15T07:54:56;101102.66;;;8.17;87.80
58757;BME280;44527;47.460;19.016;2024-02-15T07:58:00;101099.16;;;8.18;88.53
58757;BME280;44527;47.460;19.016;2024-02-15T08:01:04;101096.84;;;8.31;87.00
58757;BME280;44527;47.460;19.016;2024-02-15T08:04:08;101100.16;;;8.34;87.08
58757;BME280;44527;47.460;19.016;2024-02-15T08:07:11;101101.13;;;8.52;86.25
58757;BME280;44527;47.460;19.016;2024-02-15T08:10:15;101102.53;;;8.59;85.28
58757;BME280;44527;47.460;19.016;2024-02-15T08:21:51;101101.13;;;8.90;81.33
58757;BME280;44527;47.460;19.016;2024-02-15T08:24:56;101103.03;;;8.86;81.80
58757;BME280;44527;47.460;19.016;2024-02-15T08:28:13;101095.06;;;8.70;83.31
58757;BME280;44527;47.460;19.016;2024-02-15T08:31:23;101102.22;;;8.67;82.31
58757;BME280;44527;47.460;19.016;2024-02-15T08:34:26;101100.91;;;8.57;82.03
58757;BME280;44527;47.460;19.016;2024-02-15T08:37:32;101096.69;;;8.73;81.09
58757;BME280;44527;47.460;19.016;2024-02-15T08:40:58;101092.56;;;8.86;80.68
58757;BME280;44527;47.460;19.016;2024-02-15T08:44:01;101090.38;;;8.96;80.44
58757;BME280;44527;47.460;19.016;2024-02-15T08:47:08;101085.38;;;9.09;80.69
58757;BME280;44527;47.460;19.016;2024-02-15T08:50:12;101089.59;;;9.30;80.26
58757;BME280;44527;47.460;19.016;2024-02-15T10:31:24;101108.66;;;11.33;67.70
58757;BME280;44527;47.460;19.016;2024-02-15T10:34:43;101110.94;;;11.39;69.08
58757;BME280;44527;47.460;19.016;2024-02-15T11:26:59;101100.34;;;12.15;62.42
58757;BME280;44527;47.460;19.016;2024-02-15T11:30:07;101089.72;;;12.31;61.45
58757;BME280;44527;47.460;19.016;2024-02-15T11:33:33;101093.38;;;12.43;60.86
58757;BME280;44527;47.460;19.016;2024-02-15T11:36:39;101086.34;;;12.44;61.08
58757;BME280;44527;47.460;19.016;2024-02-15T11:40:04;101083.22;;;12.51;61.53
58757;BME280;44527;47.460;19.016;2024-02-15T11:51:06;101082.09;;;12.41;61.46
58757;BME280;44527;47.460;19.016;2024-02-15T11:54:11;101071.09;;;12.34;62.38
58757;BME280;44527;47.460;19.016;2024-02-15T11:57:40;101069.97;;;12.53;62.09
58757;BME280;44527;47.460;19.016;2024-02-15T12:00:59;101070.44;;;12.45;60.29
58757;BME280;44527;47.460;19.016;2024-02-15T12:04:21;101067.97;;;12.56;60.19
58757;BME280;44527;47.460;19.016;2024-02-15T12:07:42;101067.41;;;12.51;60.91
58757;BME280;44527;47.460;19.016;2024-02-15T12:11:05;101064.59;;;12.54;60.77
58757;BME280;44527;47.460;19.016;2024-02-15T12:15:13;101062.72;;;12.56;59.56
58757;BME280;44527;47.460;19.016;2024-02-15T12:18:43;101067.03;;;12.57;60.55
58757;BME280;44527;47.460;19.016;2024-02-15T13:06:51;101020.06;;;12.37;59.14
58757;BME280;44527;47.460;19.016;2024-02-15T13:09:54;101024.56;;;12.49;55.65
58757;BME280;44527;47.460;19.016;2024-02-15T13:12:58;101028.09;;;12.48;56.16
58757;BME280;44527;47.460;19.016;2024-02-15T13:16:01;101030.47;;;12.24;56.15
58757;BME280;44527;47.460;19.016;2024-02-15T13:19:04;101022.88;;;12.34;56.43
58757;BME280;44527;47.460;19.016;2024-02-15T13:22:10;101023.66;;;12.22;56.88
58757;BME280;44527;47.460;19.016;2024-02-15T13:25:13;101025.59;;;12.18;58.77
58757;BME280;44527;47.460;19.016;2024-02-15T13:28:20;101031.06;;;12.29;58.21
58757;BME280;44527;47.460;19.016;2024-02-15T13:31:23;101026.09;;;12.10;59.67
58757;BME280;44527;47.460;19.016;2024-02-15T13:34:25;101024.38;;;12.24;57.88
58757;BME280;44527;47.460;19.016;2024-02-15T13:37:28;101021.41;;;12.15;59.85
58757;BME280;44527;47.460;19.016;2024-02-15T13:40:34;101012.38;;;12.19;60.04
58757;BME280;44527;47.460;19.016;2024-02-15T13:43:37;101013.88;;;11.95;60.72
58757;BME280;44527;47.460;19.016;2024-02-15T13:46:41;101009.06;;;12.02;61.52
58757;BME280;44527;47.460;19.016;2024-02-15T13:49:45;101018.00;;;12.13;61.71
58757;BME280;44527;47.460;19.016;2024-02-15T13:52:47;101015.00;;;12.19;61.58
58757;BME280;44527;47.460;19.016;2024-02-15T13:55:51;101006.53;;;12.14;60.50
58757;BME280;44527;47.460;19.016;2024-02-15T13:58:56;101004.56;;;11.89;62.22
58757;BME280;44527;47.460;19.016;2024-02-15T14:02:05;100996.97;;;11.85;62.19
58757;BME280;44527;47.460;19.016;2024-02-15T14:05:07;101006.25;;;11.90;61.41
58757;BME280;44527;47.460;19.016;2024-02-15T14:08:12;101000.69;;;11.81;62.32
58757;BME280;44527;47.460;19.016;2024-02-15T14:11:15;101009.03;;;11.73;61.45
58757;BME280;44527;47.460;19.016;2024-02-15T14:14:18;101011.00;;;11.55;62.50
58757;BME280;44527;47.460;19.016;2024-02-15T14:17:20;101003.00;;;11.57;62.46
58757;BME280;44527;47.460;19.016;2024-02-15T14:20:23;100999.72;;;11.67;61.79
58757;BME280;44527;47.460;19.016;2024-02-15T14:23:26;100995.97;;;11.71;61.84
58757;BME280;44527;47.460;19.016;2024-02-15T14:26:32;101004.78;;;11.56;61.52
58757;BME280;44527;47.460;19.016;2024-02-15T14:29:35;101008.78;;;11.47;62.76
58757;BME280;44527;47.460;19.016;2024-02-15T14:32:45;101002.53;;;11.50;62.69
58757;BME280;44527;47.460;19.016;2024-02-15T14:36:08;100998.47;;;11.44;63.16
58757;BME280;44527;47.460;19.016;2024-02-15T14:39:11;101005.06;;;11.52;63.68
58757;BME280;44527;47.460;19.016;2024-02-15T14:42:15;100997.62;;;11.44;64.62
58757;BME280;44527;47.460;19.016;2024-02-15T14:45:20;100995.84;;;11.44;63.43
58757;BME280;44527;47.460;19.016;2024-02-15T14:48:25;101005.12;;;11.36;63.32
58757;BME280;44527;47.460;19.016;2024-02-15T14:51:29;101008.44;;;11.39;64.10
58757;BME280;44527;47.460;19.016;2024-02-15T14:54:32;101009.34;;;11.38;64.66
58757;BME280;44527;47.460;19.016;2024-02-15T14:57:37;101008.72;;;11.19;65.96
58757;BME280;44527;47.460;19.016;2024-02-15T15:00:43;101006.37;;;11.14;65.46
58757;BME280;44527;47.460;19.016;2024-02-15T15:03:54;101002.81;;;11.15;65.21
58757;BME280;44527;47.460;19.016;2024-02-15T15:06:57;101008.91;;;11.16;66.32
58757;BME280;44527;47.460;19.016;2024-02-15T15:10:18;101003.47;;;11.19;66.53
58757;BME280;44527;47.460;19.016;2024-02-15T15:13:40;100998.53;;;11.28;66.69
58757;BME280;44527;47.460;19.016;2024-02-15T15:16:43;101001.25;;;11.27;66.60
58757;BME280;44527;47.460;19.016;2024-02-15T15:19:46;101001.66;;;11.05;66.79
58757;BME280;44527;47.460;19.016;2024-02-15T15:22:49;101000.47;;;10.95;68.52
58757;BME280;44527;47.460;19.016;2024-02-15T15:25:53;101000.66;;;10.92;69.01
58757;BME280;44527;47.460;19.016;2024-02-15T15:28:56;100995.69;;;10.87;68.95
58757;BME280;44527;47.460;19.016;2024-02-15T15:32:00;100994.31;;;10.96;68.74
58757;BME280;44527;47.460;19.016;2024-02-15T15:35:03;101000.53;;;11.09;68.61
58757;BME280;44527;47.460;19.016;2024-02-15T15:38:05;101000.44;;;11.11;67.78
58757;BME280;44527;47.460;19.016;2024-02-15T15:41:08;101004.13;;;11.08;68.47
58757;BME280;44527;47.460;19.016;2024-02-15T15:44:12;100996.84;;;10.97;69.14
58757;BME280;44527;47.460;19.016;2024-02-15T15:47:14;100998.97;;;10.91;69.73
58757;BME280;44527;47.460;19.016;2024-02-15T15:50:16;101001.00;;;10.86;69.31
58757;BME280;44527;47.460;19.016;2024-02-15T15:53:19;100997.88;;;10.79;70.70
58757;BME280;44527;47.460;19.016;2024-02-15T15:56:22;101000.59;;;10.77;71.52
58757;BME280;44527;47.460;19.016;2024-02-15T15:59:25;100998.66;;;10.65;71.83
58757;BME280;44527;47.460;19.016;2024-02-15T16:02:27;100996.53;;;10.72;71.76
58757;BME280;44527;47.460;19.016;2024-02-15T16:05:30;100999.69;;;10.63;73.08
58757;BME280;44527;47.460;19.016;2024-02-15T16:08:34;100996.28;;;10.61;74.33
58757;BME280;44527;47.460;19.016;2024-02-15T16:11:37;100995.16;;;10.65;72.38
58757;BME280;44527;47.460;19.016;2024-02-15T16:14:40;101005.44;;;10.69;73.15
58757;BME280;44527;47.460;19.016;2024-02-15T16:17:43;101004.59;;;10.69;73.06
58757;BME280;44527;47.460;19.016;2024-02-15T16:20:45;100999.69;;;10.63;73.82
58757;BME280;44527;47.460;19.016;2024-02-15T16:23:48;100999.75;;;10.61;74.28
58757;BME280;44527;47.460;19.016;2024-02-15T16:26:51;101006.13;;;10.57;75.08
58757;BME280;44527;47.460;19.016;2024-02-15T16:29:56;101003.37;;;10.58;74.65
58757;BME280;44527;47.460;19.016;2024-02-15T16:32:58;100996.56;;;10.56;75.20
58757;BME280;44527;47.460;19.016;2024-02-15T16:36:01;101002.87;;;10.52;74.52
58757;BME280;44527;47.460;19.016;2024-02-15T16:39:04;101011.94;;;10.46;75.16
58757;BME280;44527;47.460;19.016;2024-02-15T16:42:09;101008.41;;;10.47;75.84
58757;BME280;44527;47.460;19.016;2024-02-15T16:45:17;101011.25;;;10.43;77.04
58757;BME280;44527;47.460;19.016;2024-02-15T16:48:22;101018.12;;;10.45;77.05
58757;BME280;44527;47.460;19.016;2024-02-15T16:51:24;101014.16;;;10.38;77.93
58757;BME280;44527;47.460;19.016;2024-02-15T16:54:30;101015.84;;;10.39;77.28
58757;BME280;44527;47.460;19.016;2024-02-15T16:57:33;101023.53;;;10.42;77.36
58757;BME280;44527;47.460;19.016;2024-02-15T17:00:37;101024.66;;;10.38;77.12
58757;BME280;44527;47.460;19.016;2024-02-15T17:03:41;101028.62;;;10.29;76.91
58757;BME280;44527;47.460;19.016;2024-02-15T17:06:43;101035.41;;;10.16;78.00
58757;BME280;44527;47.460;19.016;2024-02-15T17:09:46;101040.03;;;9.95;79.16
58757;BME280;44527;47.460;19.016;2024-02-15T17:12:48;101041.63;;;9.98;78.48
58757;BME280;44527;47.460;19.016;2024-02-15T17:15:51;101042.81;;;9.92;79.15
58757;BME280;44527;47.460;19.016;2024-02-15T17:18:54;101044.34;;;9.79;79.49
58757;BME280;44527;47.460;19.016;2024-02-15T17:21:56;101045.06;;;9.65;81.25
58757;BME280;44527;47.460;19.016;2024-02-15T17:24:59;101056.03;;;9.56;82.03
58757;BME280;44527;47.460;19.016;2024-02-15T17:28:08;101052.00;;;9.49;83.79
58757;BME280;44527;47.460;19.016;2024-02-15T17:31:14;101054.56;;;9.50;83.32
58757;BME280;44527;47.460;19.016;2024-02-15T17:34:17;101049.63;;;9.44;84.25
58757;BME280;44527;47.460;19.016;2024-02-15T17:37:20;101059.16;;;9.45;84.79
58757;BME280;44527;47.460;19.016;2024-02-15T17:40:22;101052.00;;;9.49;83.27
58757;BME280;44527;47.460;19.016;2024-02-15T17:43:25;101061.16;;;9.57;82.26
58757;BME280;44527;47.460;19.016;2024-02-15T17:46:29;101061.00;;;9.60;82.02
58757;BME280;44527;47.460;19.016;2024-02-15T17:49:32;101065.41;;;9.60;82.31
58757;BME280;44527;47.460;19.016;2024-02-15T17:52:34;101064.25;;;9.65;83.26
58757;BME280;44527;47.460;19.016;2024-02-15T17:55:39;101057.94;;;9.70;83.74
58757;BME280;44527;47.460;19.016;2024-02-15T17:58:43;101062.28;;;9.71;83.96
58757;BME280;44527;47.460;19.016;2024-02-15T18:01:49;101055.00;;;9.76;84.04
58757;BME280;44527;47.460;19.016;2024-02-15T18:04:54;101058.78;;;9.70;84.72
58757;BME280;44527;47.460;19.016;2024-02-15T18:07:56;101058.03;;;9.68;85.29
58757;BME280;44527;47.460;19.016;2024-02-15T18:10:59;101051.22;;;9.64;84.50
58757;BME280;44527;47.460;19.016;2024-02-15T18:14:02;101066.19;;;9.62;85.39
58757;BME280;44527;47.460;19.016;2024-02-15T18:17:05;101062.56;;;9.64;84.98
58757;BME280;44527;47.460;19.016;2024-02-15T18:20:08;101055.09;;;9.74;84.72
58757;BME280;44527;47.460;19.016;2024-02-15T18:23:15;101055.53;;;9.82;84.61
58757;BME280;44527;47.460;19.016;2024-02-15T18:26:20;101057.47;;;9.79;84.86
58757;BME280;44527;47.460;19.016;2024-02-15T18:29:23;101058.88;;;9.69;85.77
58757;BME280;44527;47.460;19.016;2024-02-15T18:32:25;101051.16;;;9.65;85.66
58757;BME280;44527;47.460;19.016;2024-02-15T18:35:28;101051.00;;;9.51;87.54
58757;BME280;44527;47.460;19.016;2024-02-15T18:38:31;101052.78;;;9.51;86.75
58757;BME280;44527;47.460;19.016;2024-02-15T18:41:34;101050.75;;;9.38;87.29
58757;BME280;44527;47.460;19.016;2024-02-15T18:44:36;101060.31;;;9.39;87.05
58757;BME280;44527;47.460;19.016;2024-02-15T18:47:39;101048.44;;;9.15;89.17
58757;BME280;44527;47.460;19.016;2024-02-15T18:50:45;101048.38;;;9.16;88.80
58757;BME280;44527;47.460;19.016;2024-02-15T18:53:49;101048.88;;;9.06;89.19
58757;BME280;44527;47.460;19.016;2024-02-15T18:56:51;101046.78;;;8.95;89.65
58757;BME280;44527;47.460;19.016;2024-02-15T18:59:57;101050.53;;;8.89;90.77
58757;BME280;44527;47.460;19.016;2024-02-15T19:03:08;101051.09;;;8.96;89.86
58757;BME280;44527;47.460;19.016;2024-02-15T19:06:11;101047.00;;;8.90;90.56
58757;BME280;44527;47.460;19.016;2024-02-15T19:09:13;101051.31;;;8.91;90.14
58757;BME280;44527;47.460;19.016;2024-02-15T19:12:16;101044.59;;;8.86;90.38
58757;BME280;44527;47.460;19.016;2024-02-15T19:15:19;101044.50;;;8.70;91.31
58757;BME280;44527;47.460;19.016;2024-02-15T19:18:22;101043.00;;;8.64;92.16
58757;BME280;44527;47.460;19.016;2024-02-15T19:21:26;101046.09;;;8.54;93.99
58757;BME280;44527;47.460;19.016;2024-02-15T19:24:28;101055.16;;;8.46;96.09
58757;BME280;44527;47.460;19.016;2024-02-15T19:27:31;101050.16;;;8.42;96.28
58757;BME280;44527;47.460;19.016;2024-02-15T19:30:34;101049.22;;;8.43;95.70
58757;BME280;44527;47.460;19.016;2024-02-15T19:33:39;101046.81;;;8.38;96.79
58757;BME280;44527;47.460;19.016;2024-02-15T19:36:57;101047.72;;;8.37;95.93
58757;BME280;44527;47.460;19.016;2024-02-15T19:40:16;101053.34;;;8.28;96.21